createdAt,value
2022-09-16T00:00:27.771Z,3.47
2022-09-16T00:02:55.386Z,3.22
2022-09-16T00:05:22.751Z,3.33
2022-09-16T00:07:49.373Z,3.65
2022-09-16T00:10:16.066Z,2.78
2022-09-16T00:12:42.751Z,3.58
2022-09-16T00:15:10.253Z,3.10
2022-09-16T00:17:37.970Z,3.42
2022-09-16T00:20:06.065Z,3.75
2022-09-16T00:22:33.239Z,3.40
2022-09-16T00:24:59.871Z,3.35
2022-09-16T00:27:26.772Z,3.40
2022-09-16T00:29:53.777Z,4.10
2022-09-16T00:32:20.503Z,3.13
2022-09-16T00:34:47.080Z,3.80
2022-09-16T00:37:13.604Z,2.95
2022-09-16T00:39:40.357Z,3.40
2022-09-16T00:42:07.005Z,3.50
2022-09-16T00:44:54.588Z,3.67
2022-09-16T00:47:40.433Z,4.13
2022-09-16T00:50:09.234Z,4.15
2022-09-16T00:52:37.163Z,3.08
2022-09-16T00:55:08.646Z,3.53
2022-09-16T00:57:36.852Z,3.65
2022-09-16T01:00:06.113Z,3.35
2022-09-16T01:02:32.697Z,3.50
2022-09-16T01:05:04.821Z,3.53
2022-09-16T01:07:40.308Z,2.65
2022-09-16T01:10:07.308Z,3.50
2022-09-16T01:12:35.135Z,3.30
2022-09-16T01:15:03.425Z,3.67
2022-09-16T01:17:57.362Z,3.40
2022-09-16T01:21:14.844Z,3.78
2022-09-16T01:24:00.889Z,4.43
2022-09-16T01:26:33.014Z,3.53
2022-09-16T01:29:25.772Z,3.20
2022-09-16T01:32:01.281Z,3.33
2022-09-16T01:34:56.048Z,3.38
2022-09-16T01:38:01.010Z,4.03
2022-09-16T01:41:04.828Z,4.53
2022-09-16T01:43:43.864Z,3.97
2022-09-16T01:48:54.028Z,4.07
2022-09-16T01:51:40.892Z,5.35
2022-09-16T01:54:23.973Z,4.57
2022-09-16T01:57:28.788Z,5.80
2022-09-16T02:00:22.441Z,4.57
2022-09-16T02:02:58.777Z,3.47
2022-09-16T02:05:34.689Z,3.88
2022-09-16T02:08:12.301Z,3.50
2022-09-16T02:10:46.918Z,4.40
2022-09-16T02:13:25.942Z,4.10
2022-09-16T02:18:27.314Z,3.78
2022-09-16T02:20:59.279Z,4.30
2022-09-16T02:23:33.335Z,4.03
2022-09-16T02:26:02.023Z,3.90
2022-09-16T02:28:35.119Z,4.07
2022-09-16T02:31:06.090Z,3.20
2022-09-16T02:33:47.540Z,3.55
2022-09-16T02:36:20.229Z,3.22
2022-09-16T02:38:53.232Z,4.32
2022-09-16T02:41:20.296Z,3.58
2022-09-16T02:43:46.838Z,3.28
2022-09-16T02:46:35.356Z,3.50
2022-09-16T02:49:23.532Z,3.85
2022-09-16T02:51:59.116Z,3.33
2022-09-16T02:54:54.129Z,3.17
2022-09-16T02:57:21.371Z,3.22
2022-09-16T02:59:48.901Z,3.10
2022-09-16T03:02:15.557Z,3.20
2022-09-16T03:04:42.051Z,2.63
2022-09-16T03:07:11.233Z,2.95
2022-09-16T03:12:45.552Z,3.03
2022-09-16T03:15:24.160Z,2.78
2022-09-16T03:18:17.328Z,2.60
2022-09-16T03:20:46.840Z,3.38
2022-09-16T03:23:25.595Z,3.13
2022-09-16T03:26:04.603Z,2.90
2022-09-16T03:31:38.278Z,3.47
2022-09-16T03:34:05.074Z,3.28
2022-09-16T03:36:36.170Z,3.05
2022-09-16T03:39:04.241Z,3.63
2022-09-16T03:41:34.034Z,3.45
2022-09-16T03:44:03.949Z,2.95
2022-09-16T03:46:31.891Z,3.53
2022-09-16T03:48:59.051Z,3.25
2022-09-16T03:51:26.304Z,3.20
2022-09-16T03:53:54.272Z,3.35
2022-09-16T03:56:23.634Z,3.40
2022-09-16T03:58:50.295Z,3.72
2022-09-16T04:01:16.977Z,3.22
2022-09-16T04:03:43.615Z,3.30
2022-09-16T04:06:10.195Z,2.63
2022-09-16T04:08:37.291Z,2.85
2022-09-16T04:11:05.896Z,2.92
2022-09-16T04:13:35.241Z,2.80
2022-09-16T04:16:03.620Z,2.95
2022-09-16T04:18:34.750Z,2.80
2022-09-16T04:21:03.501Z,2.72
2022-09-16T04:23:31.220Z,2.60
2022-09-16T04:25:59.746Z,3.03
2022-09-16T04:28:27.174Z,3.05
2022-09-16T04:30:54.065Z,2.92
2022-09-16T04:33:20.718Z,2.95
2022-09-16T04:35:47.905Z,3.08
2022-09-16T04:38:14.455Z,2.78
2022-09-16T04:40:41.019Z,2.72
2022-09-16T04:43:07.526Z,3.47
2022-09-16T04:45:34.043Z,3.10
2022-09-16T04:48:00.661Z,3.05
2022-09-16T04:50:27.758Z,2.15
2022-09-16T04:52:54.427Z,2.78
2022-09-16T04:55:24.131Z,2.40
2022-09-16T04:57:51.124Z,2.97
2022-09-16T05:00:17.660Z,2.70
2022-09-16T05:02:45.895Z,2.33
2022-09-16T05:05:13.289Z,2.50
2022-09-16T05:07:39.918Z,2.30
2022-09-16T05:10:06.908Z,2.42
2022-09-16T05:12:33.492Z,2.65
2022-09-16T05:15:00.002Z,3.00
2022-09-16T05:17:49.758Z,2.70
2022-09-16T05:22:42.544Z,3.28
2022-09-16T05:25:09.444Z,2.97
2022-09-16T05:27:36.200Z,3.00
2022-09-16T05:30:02.736Z,3.00
2022-09-16T05:32:29.284Z,2.97
2022-09-16T05:34:56.285Z,3.13
2022-09-16T05:37:22.849Z,2.97
2022-09-16T05:39:49.407Z,2.97
2022-09-16T05:42:15.965Z,3.15
2022-09-16T05:44:42.535Z,3.22
2022-09-16T05:47:09.068Z,3.70
2022-09-16T05:49:35.593Z,3.20
2022-09-16T05:52:02.716Z,3.20
2022-09-16T05:54:29.278Z,3.60
2022-09-16T05:56:55.784Z,3.70
2022-09-16T05:59:24.056Z,3.60
2022-09-16T06:01:50.714Z,3.63
2022-09-16T06:04:17.254Z,3.53
2022-09-16T06:06:45.819Z,3.10
2022-09-16T06:09:21.173Z,3.88
2022-09-16T06:11:50.161Z,3.45
2022-09-16T06:14:18.464Z,4.45
2022-09-16T06:16:46.039Z,4.70
2022-09-16T06:19:15.755Z,4.82
2022-09-16T06:21:43.981Z,4.30
2022-09-16T06:24:11.718Z,4.83
2022-09-16T06:26:40.155Z,5.35
2022-09-16T06:29:07.636Z,5.30
2022-09-16T06:31:36.223Z,5.50
2022-09-16T06:34:03.245Z,5.18
2022-09-16T06:36:35.128Z,5.38
2022-09-16T06:39:01.719Z,5.53
2022-09-16T06:41:28.554Z,5.50
2022-09-16T06:43:55.368Z,5.65
2022-09-16T06:46:24.784Z,5.60
2022-09-16T06:48:53.942Z,5.32
2022-09-16T06:53:50.870Z,4.55
2022-09-16T06:56:20.033Z,5.28
2022-09-16T06:58:49.321Z,3.67
2022-09-16T07:01:21.156Z,7.10
2022-09-16T07:03:50.784Z,7.65
2022-09-16T07:06:19.286Z,6.68
2022-09-16T07:08:46.496Z,6.40
2022-09-16T07:11:14.794Z,5.32
2022-09-16T07:13:42.566Z,5.57
2022-09-16T07:16:18.103Z,5.28
2022-09-16T07:18:46.353Z,3.35
2022-09-16T07:21:17.898Z,2.63
2022-09-16T07:23:45.938Z,3.15
2022-09-16T07:26:15.904Z,2.67
2022-09-16T07:28:44.312Z,3.30
2022-09-16T07:31:13.047Z,2.83
2022-09-16T07:33:42.698Z,4.63
2022-09-16T07:36:11.590Z,4.60
2022-09-16T07:38:38.577Z,3.85
2022-09-16T07:41:16.507Z,2.70
2022-09-16T07:43:44.107Z,2.42
2022-09-16T07:46:12.449Z,2.47
2022-09-16T07:48:40.060Z,2.93
2022-09-16T07:51:09.193Z,2.78
2022-09-16T07:56:08.235Z,2.30
2022-09-16T07:58:35.165Z,2.78
2022-09-16T08:01:04.861Z,2.83
2022-09-16T08:03:36.187Z,3.17
2022-09-16T08:06:09.602Z,3.28
2022-09-16T08:08:36.372Z,3.22
2022-09-16T08:11:03.882Z,3.38
2022-09-16T08:13:32.813Z,3.05
2022-09-16T08:16:05.709Z,2.83
2022-09-16T08:18:32.916Z,3.28
2022-09-16T08:21:04.648Z,3.17
2022-09-16T08:23:31.330Z,2.70
2022-09-16T08:26:01.431Z,3.17
2022-09-16T08:28:39.820Z,2.80
2022-09-16T08:31:17.301Z,3.00
2022-09-16T08:33:44.824Z,2.15
2022-09-16T08:36:19.782Z,2.72
2022-09-16T08:38:47.887Z,2.85
2022-09-16T08:41:17.622Z,2.63
2022-09-16T08:44:08.702Z,2.70
2022-09-16T08:46:37.502Z,3.00
2022-09-16T08:49:26.915Z,2.85
2022-09-16T08:51:55.657Z,2.45
2022-09-16T08:54:27.559Z,2.88
2022-09-16T08:56:57.827Z,2.38
2022-09-16T08:59:30.450Z,2.60
2022-09-16T09:02:09.739Z,2.20
2022-09-16T09:04:36.706Z,2.40
2022-09-16T09:07:17.065Z,2.00
2022-09-16T09:10:10.715Z,2.40
2022-09-16T09:12:42.807Z,2.00
2022-09-16T09:15:29.442Z,1.90
2022-09-16T09:18:18.051Z,2.10
2022-09-16T09:20:56.676Z,2.17
2022-09-16T09:24:18.449Z,2.15
2022-09-16T09:26:47.838Z,1.55
2022-09-16T09:29:54.897Z,2.10
2022-09-16T09:32:27.398Z,1.63
2022-09-16T09:35:05.735Z,2.20
2022-09-16T09:37:47.035Z,2.10
2022-09-16T09:40:31.454Z,1.98
2022-09-16T09:43:14.601Z,2.30
2022-09-16T09:45:56.446Z,2.35
2022-09-16T09:48:32.314Z,2.17
2022-09-16T09:51:02.761Z,1.98
2022-09-16T09:53:29.293Z,1.80
2022-09-16T09:56:11.374Z,1.70
2022-09-16T09:58:58.838Z,1.63
2022-09-16T10:01:25.413Z,1.70
2022-09-16T10:03:56.113Z,1.75
2022-09-16T10:06:29.210Z,1.63
2022-09-16T10:08:58.512Z,1.33
2022-09-16T10:11:28.509Z,1.40
2022-09-16T10:13:58.123Z,1.30
2022-09-16T10:16:33.030Z,0.93
2022-09-16T10:19:17.169Z,1.08
2022-09-16T10:21:47.756Z,1.20
2022-09-16T10:24:43.278Z,1.42
2022-09-16T10:27:22.370Z,1.38
2022-09-16T10:32:29.089Z,1.40
2022-09-16T10:34:56.506Z,1.17
2022-09-16T10:37:27.891Z,1.45
2022-09-16T10:39:57.173Z,1.50
2022-09-16T10:42:26.629Z,1.48
2022-09-16T10:44:57.458Z,1.60
2022-09-16T10:47:28.907Z,1.35
2022-09-16T10:50:02.155Z,1.38
2022-09-16T10:52:31.315Z,1.35
2022-09-16T10:55:09.910Z,1.30
2022-09-16T10:57:40.300Z,1.20
2022-09-16T11:00:13.670Z,1.20
2022-09-16T11:02:58.419Z,1.45
2022-09-16T11:05:46.321Z,1.40
2022-09-16T11:08:20.878Z,1.20
2022-09-16T11:11:12.057Z,1.10
2022-09-16T11:14:04.517Z,1.25
2022-09-16T11:16:46.008Z,1.60
2022-09-16T11:19:17.316Z,1.60
2022-09-16T11:22:01.808Z,1.00
2022-09-16T11:24:34.766Z,1.67
2022-09-16T11:27:10.347Z,1.25
2022-09-16T11:30:02.106Z,1.38
2022-09-16T11:32:40.623Z,1.35
2022-09-16T11:35:34.971Z,1.23
2022-09-16T11:38:13.384Z,1.13
2022-09-16T11:41:11.720Z,1.17
2022-09-16T11:44:09.126Z,1.23
2022-09-16T11:46:57.500Z,1.70
2022-09-16T11:49:33.657Z,1.30
2022-09-16T11:52:09.336Z,1.45
2022-09-16T11:54:35.846Z,1.20
2022-09-16T11:57:10.809Z,1.33
2022-09-16T11:59:52.674Z,1.35
2022-09-16T12:02:29.822Z,1.40
2022-09-16T12:05:23.333Z,1.50
2022-09-16T12:08:23.131Z,1.30
2022-09-16T12:11:19.671Z,1.50
2022-09-16T12:14:05.483Z,1.40
2022-09-16T12:16:48.183Z,1.75
2022-09-16T12:19:26.272Z,1.40
2022-09-16T12:21:59.485Z,1.47
2022-09-16T12:24:42.711Z,1.70
2022-09-16T12:27:20.100Z,1.50
2022-09-16T12:29:56.820Z,1.27
2022-09-16T12:32:51.126Z,1.70
2022-09-16T12:35:25.110Z,1.60
2022-09-16T12:37:54.147Z,1.65
2022-09-16T12:43:27.253Z,1.45
2022-09-16T12:45:59.615Z,1.60
2022-09-16T12:48:56.763Z,1.75
2022-09-16T12:51:38.850Z,1.38
2022-09-16T12:54:23.976Z,1.60
2022-09-16T12:57:18.606Z,1.50
2022-09-16T13:00:07.525Z,1.80
2022-09-16T13:05:23.745Z,1.52
2022-09-16T13:07:57.821Z,1.65
2022-09-16T13:10:54.450Z,1.80
2022-09-16T13:13:31.745Z,1.75
2022-09-16T13:16:01.003Z,2.08
2022-09-16T13:18:46.343Z,1.75
2022-09-16T13:21:27.338Z,1.52
2022-09-16T13:24:22.999Z,1.50
2022-09-16T13:26:50.161Z,2.45
2022-09-16T13:29:42.679Z,1.85
2022-09-16T13:32:50.556Z,1.45
2022-09-16T13:35:19.947Z,1.87
2022-09-16T13:37:48.903Z,1.88
2022-09-16T13:43:23.931Z,1.90
2022-09-16T13:46:11.146Z,1.50
2022-09-16T13:48:43.656Z,2.00
2022-09-16T13:51:16.478Z,1.70
2022-09-16T13:53:46.619Z,2.05
2022-09-16T13:56:13.680Z,2.10
2022-09-16T13:59:17.409Z,1.40
2022-09-16T14:02:00.237Z,1.58
2022-09-16T14:05:02.354Z,1.85
2022-09-16T14:07:55.661Z,1.60
2022-09-16T14:10:45.042Z,1.65
2022-09-16T14:13:13.580Z,2.08
2022-09-16T14:15:47.649Z,1.80
2022-09-16T14:18:17.941Z,1.92
2022-09-16T14:21:18.581Z,2.13
2022-09-16T14:23:45.217Z,1.83
2022-09-16T14:26:20.630Z,2.10
2022-09-16T14:28:47.948Z,2.08
2022-09-16T14:31:18.888Z,1.88
2022-09-16T14:33:56.384Z,2.70
2022-09-16T14:36:26.989Z,2.53
2022-09-16T14:39:02.414Z,2.53
2022-09-16T14:41:40.522Z,2.05
2022-09-16T14:44:19.362Z,2.50
2022-09-16T14:49:18.403Z,1.77
2022-09-16T14:51:58.442Z,2.70
2022-09-16T14:54:27.144Z,2.45
2022-09-16T14:56:58.425Z,2.10
2022-09-16T14:59:36.206Z,1.70
2022-09-16T15:02:16.792Z,2.13
2022-09-16T15:04:47.454Z,2.35
2022-09-16T15:07:50.579Z,2.10
2022-09-16T15:10:32.690Z,2.15
2022-09-16T15:13:15.565Z,2.25
2022-09-16T15:16:00.069Z,2.25
2022-09-16T15:18:28.499Z,1.98
2022-09-16T15:21:32.785Z,2.17
2022-09-16T15:24:01.922Z,2.42
2022-09-16T15:29:17.219Z,2.00
2022-09-16T15:31:45.007Z,2.75
2022-09-16T15:34:23.916Z,2.08
2022-09-16T15:36:50.420Z,2.10
2022-09-16T15:39:34.092Z,1.63
2022-09-16T15:42:12.096Z,1.73
2022-09-16T15:44:52.572Z,2.20
2022-09-16T15:47:29.011Z,2.53
2022-09-16T15:50:03.591Z,2.80
2022-09-16T15:52:34.032Z,3.60
2022-09-16T15:55:05.050Z,2.88
2022-09-16T15:57:33.805Z,2.92
2022-09-16T16:00:13.165Z,2.42
2022-09-16T16:03:01.482Z,2.38
2022-09-16T16:05:31.894Z,2.35
2022-09-16T16:08:08.972Z,2.60
2022-09-16T16:10:36.590Z,3.00
2022-09-16T16:13:04.735Z,3.53
2022-09-16T16:15:35.679Z,3.00
2022-09-16T16:18:05.718Z,3.75
2022-09-16T16:20:34.138Z,3.15
2022-09-16T16:23:01.933Z,3.10
2022-09-16T16:25:28.821Z,2.58
2022-09-16T16:27:55.546Z,2.42
2022-09-16T16:30:22.196Z,3.70
2022-09-16T16:32:48.960Z,2.70
2022-09-16T16:35:15.507Z,2.70
2022-09-16T16:37:46.767Z,2.90
2022-09-16T16:40:14.963Z,3.80
2022-09-16T16:42:43.544Z,2.90
2022-09-16T16:45:12.917Z,5.40
2022-09-16T16:47:40.619Z,4.28
2022-09-16T16:50:08.407Z,3.75
2022-09-16T16:52:35.040Z,3.20
2022-09-16T16:55:08.268Z,2.53
2022-09-16T16:57:36.961Z,2.15
2022-09-16T17:00:04.963Z,2.60
2022-09-16T17:02:31.934Z,2.50
2022-09-16T17:04:58.907Z,3.25
2022-09-16T17:07:27.474Z,2.38
2022-09-16T17:12:21.586Z,3.15
2022-09-16T17:14:48.156Z,3.55
2022-09-16T17:17:14.696Z,2.20
2022-09-16T17:19:41.232Z,3.10
2022-09-16T17:22:07.846Z,2.70
2022-09-16T17:24:34.889Z,3.40
2022-09-16T17:27:02.073Z,2.80
2022-09-16T17:29:28.789Z,2.63
2022-09-16T17:31:57.127Z,2.00
2022-09-16T17:34:26.394Z,4.30
2022-09-16T17:36:53.193Z,3.50
2022-09-16T17:39:22.795Z,2.30
2022-09-16T17:41:50.124Z,2.53
2022-09-16T17:44:17.925Z,2.78
2022-09-16T17:46:45.453Z,2.35
2022-09-16T17:49:21.266Z,3.00
2022-09-16T17:51:48.950Z,2.88
2022-09-16T17:54:17.253Z,2.70
2022-09-16T17:56:44.467Z,3.03
2022-09-16T17:59:12.624Z,3.20
2022-09-16T18:01:39.742Z,2.87
2022-09-16T18:04:07.095Z,3.30
2022-09-16T18:06:45.366Z,3.70
2022-09-16T18:09:13.203Z,3.37
2022-09-16T18:11:40.423Z,3.17
2022-09-16T18:14:08.544Z,3.45
2022-09-16T18:16:35.685Z,2.50
2022-09-16T18:19:04.005Z,2.92
2022-09-16T18:21:31.502Z,2.20
2022-09-16T18:24:00.662Z,2.13
2022-09-16T18:29:11.805Z,2.45
2022-09-16T18:31:40.635Z,2.30
2022-09-16T18:34:07.396Z,2.60
2022-09-16T18:36:35.265Z,3.20
2022-09-16T18:39:02.309Z,3.22
2022-09-16T18:41:34.268Z,3.40
2022-09-16T18:44:03.592Z,3.03
2022-09-16T18:46:32.366Z,4.22
2022-09-16T18:48:59.485Z,3.13
2022-09-16T18:51:33.620Z,3.45
2022-09-16T18:54:02.747Z,3.10
2022-09-16T19:01:49.258Z,3.35
2022-09-16T19:04:18.212Z,3.65
2022-09-16T19:06:47.899Z,3.45
2022-09-16T19:09:17.106Z,4.35
2022-09-16T19:14:15.392Z,3.00
2022-09-16T19:16:44.150Z,3.33
2022-09-16T19:19:13.415Z,3.67
2022-09-16T19:21:41.014Z,2.75
2022-09-16T19:24:13.903Z,4.00
2022-09-16T19:26:41.178Z,3.53
2022-09-16T19:29:08.508Z,3.95
2022-09-16T19:31:37.802Z,3.35
2022-09-16T19:34:05.925Z,2.65
2022-09-16T19:36:33.204Z,3.95
2022-09-16T19:39:00.726Z,5.10
2022-09-16T19:41:30.891Z,4.70
2022-09-16T19:44:00.985Z,4.72
2022-09-16T19:46:29.166Z,4.40
2022-09-16T19:48:56.495Z,4.40
2022-09-16T19:51:24.186Z,4.65
2022-09-16T19:53:52.318Z,4.15
2022-09-16T19:56:23.903Z,4.20
2022-09-16T19:58:52.857Z,3.63
2022-09-16T20:01:23.898Z,5.60
2022-09-16T20:03:50.737Z,3.35
2022-09-16T20:06:28.918Z,4.95
2022-09-16T20:08:59.722Z,2.60
2022-09-16T20:11:31.738Z,3.38
2022-09-16T20:14:05.489Z,3.10
2022-09-16T20:16:37.584Z,5.80
2022-09-16T20:19:05.675Z,4.50
2022-09-16T20:21:35.017Z,8.85
2022-09-16T20:24:03.325Z,8.00
2022-09-16T20:26:29.840Z,6.47
2022-09-16T20:28:56.540Z,6.68
2022-09-16T20:31:28.819Z,4.95
2022-09-16T20:33:55.966Z,5.15
2022-09-16T20:36:25.226Z,3.78
2022-09-16T20:38:52.511Z,3.50
2022-09-16T20:41:21.940Z,3.58
2022-09-16T20:43:49.033Z,3.58
2022-09-16T20:46:22.107Z,4.28
2022-09-16T20:48:49.492Z,4.53
2022-09-16T20:51:19.088Z,5.97
2022-09-16T20:53:54.892Z,7.43
2022-09-16T20:56:22.238Z,7.55
2022-09-16T20:58:49.298Z,6.55
2022-09-16T21:01:24.341Z,5.82
2022-09-16T21:03:53.289Z,4.47
2022-09-16T21:06:20.115Z,4.22
2022-09-16T21:08:47.604Z,4.28
2022-09-16T21:11:17.881Z,4.75
2022-09-16T21:13:46.949Z,4.07
2022-09-16T21:16:15.748Z,4.32
2022-09-16T21:18:43.036Z,4.50
2022-09-16T21:21:17.726Z,3.88
2022-09-16T21:23:48.398Z,3.63
2022-09-16T21:26:20.819Z,3.78
2022-09-16T21:28:57.031Z,4.70
2022-09-16T21:31:25.150Z,4.07
2022-09-16T21:33:52.381Z,3.38
2022-09-16T21:36:20.711Z,9.63
2022-09-16T21:38:47.728Z,12.17
2022-09-16T21:41:16.698Z,9.95
2022-09-16T21:43:45.576Z,5.68
2022-09-16T21:46:13.770Z,4.20
2022-09-16T21:48:42.546Z,3.33
2022-09-16T21:51:12.178Z,5.63
2022-09-16T21:53:42.757Z,7.20
2022-09-16T21:56:14.365Z,7.57
2022-09-16T21:58:42.137Z,6.30
2022-09-16T22:01:17.510Z,5.13
2022-09-16T22:03:46.151Z,7.57
2022-09-16T22:06:14.936Z,5.47
2022-09-16T22:08:48.964Z,5.85
2022-09-16T22:11:28.417Z,5.10
2022-09-16T22:13:56.446Z,4.70
2022-09-16T22:16:28.774Z,5.57
2022-09-16T22:18:58.139Z,5.82
2022-09-16T22:21:27.468Z,5.35
2022-09-16T22:23:54.262Z,4.03
2022-09-16T22:26:22.790Z,4.88
2022-09-16T22:28:50.688Z,4.13
2022-09-16T22:31:29.265Z,4.25
2022-09-16T22:33:58.054Z,3.67
2022-09-16T22:36:27.523Z,4.25
2022-09-16T22:38:56.789Z,3.75
2022-09-16T22:41:24.427Z,3.90
2022-09-16T22:43:52.908Z,3.42
2022-09-16T22:46:23.484Z,3.88
2022-09-16T22:48:50.475Z,3.45
2022-09-16T22:51:18.470Z,3.78
2022-09-16T22:53:45.826Z,5.43
2022-09-16T22:56:15.371Z,7.20
2022-09-16T22:58:44.205Z,5.30
2022-09-16T23:01:17.068Z,4.05
2022-09-16T23:03:45.345Z,3.83
2022-09-16T23:06:14.595Z,4.00
2022-09-16T23:11:13.260Z,3.87
2022-09-16T23:13:41.970Z,3.85
2022-09-16T23:16:15.322Z,3.60
2022-09-16T23:18:43.295Z,3.40
2022-09-16T23:21:12.320Z,4.45
2022-09-16T23:23:41.713Z,3.42
2022-09-16T23:26:11.731Z,3.95
2022-09-16T23:28:38.642Z,3.80
2022-09-16T23:31:07.432Z,3.90
2022-09-16T23:33:34.476Z,4.80
2022-09-16T23:36:01.814Z,4.15
2022-09-16T23:38:28.672Z,4.15
2022-09-16T23:40:55.886Z,4.13
2022-09-16T23:43:24.507Z,4.30
2022-09-16T23:45:51.119Z,3.40
2022-09-16T23:48:17.772Z,5.63
2022-09-16T23:50:45.109Z,5.45
2022-09-16T23:53:12.064Z,6.07
2022-09-16T23:55:44.735Z,5.18
2022-09-16T23:58:11.982Z,4.72
